Time;durP1;ratioP1;P1;durP2;ratioP2;P2;SDS_P1;SDS_P2;PMS_P1;PMS_P2;Temp;Humidity;BMP_temperature;BMP_pressure;BME280_temperature;BME280_humidity;BME280_pressure;Samples;Min_cycle;Max_cycle;Signal;HPM_P1;HPM_P2
2023/12/29 00:02:00;;;;;;;1.00;1.00;;;8.60;99.90;;;;;;5027706;28;20258;-78
2023/12/29 00:04:28;;;;;;;1.00;1.00;;;8.70;99.90;;;;;;5028331;28;20299;-77
2023/12/29 00:06:56;;;;;;;0.77;0.77;;;8.70;99.90;;;;;;5028055;28;20706;-77
2023/12/29 00:09:23;;;;;;;1.20;1.13;;;8.70;99.90;;;;;;5027426;28;20324;-77
2023/12/29 00:11:51;;;;;;;0.80;0.80;;;8.70;99.90;;;;;;5028181;28;20880;-77
2023/12/29 00:14:18;;;;;;;2.03;1.30;;;8.70;99.90;;;;;;5027595;28;20299;-76
2023/12/29 00:16:45;;;;;;;1.23;0.90;;;8.80;99.90;;;;;;5028101;28;20727;-78
2023/12/29 00:19:12;;;;;;;1.33;1.20;;;8.80;99.90;;;;;;5028004;28;20837;-77
2023/12/29 00:21:41;;;;;;;1.87;1.20;;;8.80;99.90;;;;;;5028001;28;20229;-76
2023/12/29 00:24:08;;;;;;;1.47;1.13;;;8.80;99.90;;;;;;5034143;28;20216;-78
2023/12/29 00:26:35;;;;;;;1.60;1.10;;;8.80;99.90;;;;;;5047371;28;20291;-77
2023/12/29 00:29:02;;;;;;;1.10;1.00;;;8.80;99.90;;;;;;5047261;28;20211;-79
2023/12/29 00:31:29;;;;;;;1.33;1.23;;;8.80;99.90;;;;;;5046623;28;20636;-79
2023/12/29 00:33:56;;;;;;;2.13;1.00;;;8.80;99.90;;;;;;5047681;28;20286;-79
2023/12/29 00:36:22;;;;;;;1.27;1.17;;;8.80;99.90;;;;;;5047374;28;20720;-77
2023/12/29 00:38:51;;;;;;;1.17;1.07;;;8.80;99.90;;;;;;5047201;28;20309;-77
2023/12/29 00:41:17;;;;;;;1.80;1.27;;;8.80;99.90;;;;;;5047634;28;20295;-77
2023/12/29 00:43:44;;;;;;;1.13;1.03;;;8.80;99.90;;;;;;5047654;28;20295;-77
2023/12/29 00:46:14;;;;;;;1.07;0.90;;;8.80;99.90;;;;;;5047454;28;20218;-79
2023/12/29 00:48:41;;;;;;;1.00;1.00;;;8.90;99.90;;;;;;5047382;28;20295;-79
2023/12/29 00:51:08;;;;;;;1.73;1.00;;;8.80;99.90;;;;;;5047479;28;20295;-79
2023/12/29 00:53:36;;;;;;;0.97;0.97;;;8.80;99.90;;;;;;5047287;28;20295;-78
2023/12/29 00:56:10;;;;;;;1.00;0.90;;;8.80;99.90;;;;;;5047378;28;20318;-79
2023/12/29 00:58:37;;;;;;;1.13;1.00;;;8.80;99.90;;;;;;5047355;28;20258;-78
2023/12/29 01:01:04;;;;;;;1.00;1.00;;;8.80;99.90;;;;;;5046939;28;20733;-78
2023/12/29 01:03:31;;;;;;;0.93;0.90;;;8.80;99.90;;;;;;5046830;28;20204;-77
2023/12/29 01:05:58;;;;;;;1.30;0.90;;;8.80;99.90;;;;;;5047623;28;20302;-77
2023/12/29 01:08:24;;;;;;;1.03;0.80;;;8.80;99.90;;;;;;5046820;28;20208;-79
2023/12/29 01:10:51;;;;;;;2.33;0.90;;;8.80;99.90;;;;;;5047053;28;20250;-78
2023/12/29 01:13:19;;;;;;;1.20;1.10;;;8.80;99.90;;;;;;5047494;28;20708;-79
2023/12/29 01:15:46;;;;;;;1.07;1.00;;;8.80;99.90;;;;;;5051794;28;20294;-79
2023/12/29 01:18:13;;;;;;;1.20;0.93;;;8.90;99.90;;;;;;5051020;28;20297;-79
2023/12/29 01:20:41;;;;;;;1.30;1.20;;;8.90;99.90;;;;;;5051110;28;20311;-79
2023/12/29 01:23:07;;;;;;;1.37;0.87;;;8.90;99.90;;;;;;5051038;28;20222;-79
2023/12/29 01:25:34;;;;;;;1.90;1.17;;;8.90;99.90;;;;;;5032720;28;20291;-78
2023/12/29 01:28:01;;;;;;;1.40;1.03;;;8.90;99.90;;;;;;5048319;28;20218;-77
2023/12/29 01:30:29;;;;;;;1.43;0.90;;;8.90;99.90;;;;;;5050459;28;20243;-78
2023/12/29 01:32:56;;;;;;;1.23;0.80;;;8.90;99.90;;;;;;5050643;28;20705;-78
2023/12/29 01:35:23;;;;;;;3.30;1.30;;;8.90;99.90;;;;;;5050990;28;20287;-78
2023/12/29 01:37:50;;;;;;;1.33;1.23;;;8.90;99.90;;;;;;5050893;28;20318;-77
2023/12/29 01:40:17;;;;;;;2.60;1.10;;;8.90;99.90;;;;;;5050715;28;20698;-77
2023/12/29 01:42:44;;;;;;;1.67;1.00;;;8.90;99.90;;;;;;5050829;28;20291;-77
2023/12/29 01:45:22;;;;;;;1.30;1.20;;;8.90;99.90;;;;;;5050521;28;20295;-78
2023/12/29 01:47:50;;;;;;;2.33;1.20;;;8.90;99.90;;;;;;5050843;28;20302;-79
2023/12/29 01:50:18;;;;;;;0.97;0.90;;;8.90;99.90;;;;;;5050544;28;20228;-78
2023/12/29 01:52:46;;;;;;;1.03;0.93;;;8.90;99.90;;;;;;5050711;28;20212;-79
2023/12/29 01:55:19;;;;;;;2.30;1.10;;;8.90;99.90;;;;;;5050450;28;20492;-79
2023/12/29 01:57:47;;;;;;;1.53;1.20;;;9.00;99.90;;;;;;5050568;28;20307;-79
2023/12/29 02:00:16;;;;;;;2.10;1.00;;;9.00;99.90;;;;;;5050348;28;20306;-79
2023/12/29 02:02:43;;;;;;;1.90;1.30;;;9.00;99.90;;;;;;5050674;28;20215;-79
2023/12/29 02:05:15;;;;;;;1.63;0.90;;;9.00;99.90;;;;;;5050385;28;20622;-79
2023/12/29 02:07:42;;;;;;;1.30;1.20;;;9.10;99.90;;;;;;5049834;28;20192;-79
2023/12/29 02:10:09;;;;;;;2.27;0.80;;;9.00;99.90;;;;;;5049955;28;20322;-78
2023/12/29 02:12:37;;;;;;;1.67;1.10;;;9.00;99.90;;;;;;5050156;28;20219;-78
2023/12/29 02:15:05;;;;;;;1.50;1.00;;;9.00;99.90;;;;;;5050538;28;20312;-78
2023/12/29 02:17:38;;;;;;;1.33;1.20;;;9.00;99.90;;;;;;5049883;28;20323;-79
2023/12/29 02:20:08;;;;;;;0.87;0.87;;;9.10;99.90;;;;;;5050482;28;20318;-80
2023/12/29 02:22:36;;;;;;;1.40;1.30;;;9.00;99.90;;;;;;5045945;28;20209;-80
2023/12/29 02:25:05;;;;;;;1.73;1.10;;;9.00;99.90;;;;;;5043746;28;20220;-80
2023/12/29 02:27:42;;;;;;;1.23;1.00;;;9.00;99.90;;;;;;5050288;28;20212;-80
2023/12/29 02:30:18;;;;;;;2.07;1.30;;;9.00;99.90;;;;;;5043441;28;20629;-81
2023/12/29 02:32:47;;;;;;;1.10;1.10;;;8.90;99.90;;;;;;5029433;28;20288;-81
2023/12/29 02:35:17;;;;;;;1.57;1.00;;;9.00;99.90;;;;;;5030252;28;20291;-81
2023/12/29 02:37:44;;;;;;;1.50;1.03;;;8.90;99.90;;;;;;5029714;28;20232;-81
2023/12/29 02:40:15;;;;;;;1.97;1.33;;;8.90;99.90;;;;;;5034301;28;20227;-81
2023/12/29 02:42:47;;;;;;;1.10;1.00;;;8.90;99.90;;;;;;5049897;28;20239;-81
2023/12/29 02:45:13;;;;;;;1.37;1.23;;;8.90;99.90;;;;;;5049990;28;20319;-80
2023/12/29 02:47:41;;;;;;;1.83;1.10;;;9.00;99.90;;;;;;5049932;28;20302;-80
2023/12/29 02:50:08;;;;;;;1.37;1.13;;;9.00;99.90;;;;;;5049705;28;20204;-79
2023/12/29 02:52:35;;;;;;;1.00;1.00;;;9.00;99.90;;;;;;5048988;28;20752;-80
2023/12/29 02:55:02;;;;;;;1.20;1.10;;;8.90;99.90;;;;;;5049178;28;20244;-80
2023/12/29 02:57:30;;;;;;;1.23;1.20;;;8.90;99.90;;;;;;5049340;28;20319;-80
2023/12/29 02:59:57;;;;;;;1.10;1.10;;;8.90;99.90;;;;;;5049101;28;20659;-80
2023/12/29 03:02:25;;;;;;;2.30;1.40;;;8.90;99.90;;;;;;5049711;28;20240;-80
2023/12/29 03:04:52;;;;;;;1.00;1.00;;;8.90;99.90;;;;;;5049067;28;20303;-80
2023/12/29 03:07:19;;;;;;;1.30;1.20;;;8.90;99.90;;;;;;5048929;28;20318;-79
2023/12/29 03:09:45;;;;;;;1.40;1.30;;;8.90;99.90;;;;;;5048511;28;20738;-79
2023/12/29 03:12:12;;;;;;;1.43;1.13;;;8.90;99.90;;;;;;5049101;28;20238;-79
2023/12/29 03:14:42;;;;;;;1.07;1.00;;;8.90;99.90;;;;;;5048977;28;20208;-78
2023/12/29 03:17:09;;;;;;;2.10;1.10;;;8.80;99.90;;;;;;5048948;28;20232;-79
2023/12/29 03:19:35;;;;;;;1.23;1.00;;;8.90;99.90;;;;;;5048196;28;20322;-82
2023/12/29 03:22:02;;;;;;;0.90;0.90;;;8.90;99.90;;;;;;5049191;28;20235;-81
2023/12/29 03:24:30;;;;;;;1.23;1.03;;;8.90;99.90;;;;;;5048570;28;20265;-81
2023/12/29 03:26:57;;;;;;;3.30;1.17;;;8.80;99.90;;;;;;5049070;28;20215;-79
2023/12/29 03:29:24;;;;;;;1.53;0.90;;;8.90;99.90;;;;;;5048522;28;20299;-79
2023/12/29 03:31:52;;;;;;;1.93;1.30;;;8.80;99.90;;;;;;5048872;28;20247;-77
2023/12/29 03:34:19;;;;;;;1.53;1.00;;;8.90;99.90;;;;;;5048535;28;20291;-76
2023/12/29 03:36:46;;;;;;;0.90;0.90;;;8.90;99.90;;;;;;5047946;28;20299;-77
2023/12/29 03:39:13;;;;;;;0.90;0.90;;;8.90;99.90;;;;;;5047805;28;20236;-77
2023/12/29 03:41:40;;;;;;;1.07;1.07;;;8.90;99.90;;;;;;5048553;28;20698;-77
2023/12/29 03:44:07;;;;;;;1.20;1.10;;;8.90;99.90;;;;;;5047950;28;20240;-77
2023/12/29 03:46:34;;;;;;;0.80;0.80;;;8.90;99.90;;;;;;5047987;28;20261;-77
2023/12/29 03:49:03;;;;;;;1.07;1.07;;;8.90;99.90;;;;;;5047456;28;20750;-77
2023/12/29 03:51:30;;;;;;;2.20;1.40;;;8.90;99.90;;;;;;5048864;28;20208;-80
2023/12/29 03:53:58;;;;;;;1.10;0.90;;;8.90;99.90;;;;;;5048375;28;20215;-79
2023/12/29 03:56:25;;;;;;;0.90;0.90;;;9.00;99.90;;;;;;5048650;28;20309;-79
2023/12/29 03:58:52;;;;;;;0.87;0.87;;;8.90;99.90;;;;;;5048615;28;20314;-80
2023/12/29 04:01:19;;;;;;;2.57;1.00;;;9.00;99.90;;;;;;5048351;28;20295;-79
2023/12/29 04:03:46;;;;;;;0.60;0.60;;;9.00;99.90;;;;;;5048442;28;20215;-77
2023/12/29 04:06:15;;;;;;;1.57;1.07;;;9.00;99.90;;;;;;5046654;28;20291;-77
2023/12/29 04:08:41;;;;;;;0.80;0.80;;;9.00;99.90;;;;;;5047631;28;20762;-77
2023/12/29 04:11:09;;;;;;;1.03;0.70;;;9.00;99.90;;;;;;5048281;28;20308;-77
2023/12/29 04:13:36;;;;;;;0.77;0.73;;;9.00;99.90;;;;;;5048572;28;20216;-78
2023/12/29 04:16:04;;;;;;;1.10;0.60;;;9.00;99.90;;;;;;5047358;28;20734;-77
2023/12/29 04:18:30;;;;;;;0.70;0.70;;;9.10;99.90;;;;;;5048127;28;20331;-77
2023/12/29 04:20:57;;;;;;;0.60;0.60;;;9.00;99.90;;;;;;5048069;28;20299;-77
2023/12/29 04:23:26;;;;;;;0.90;0.73;;;9.10;99.90;;;;;;5047601;28;20273;-78
2023/12/29 04:25:53;;;;;;;1.17;1.00;;;9.10;99.90;;;;;;5047888;28;20219;-78
2023/12/29 04:28:20;;;;;;;0.80;0.70;;;9.10;99.90;;;;;;5047929;28;20298;-78
2023/12/29 04:30:47;;;;;;;1.03;0.73;;;9.10;99.90;;;;;;5047887;28;20565;-78
2023/12/29 04:33:14;;;;;;;0.70;0.70;;;9.20;99.90;;;;;;5047683;28;20291;-78
2023/12/29 04:35:41;;;;;;;1.40;0.70;;;9.20;99.90;;;;;;5047986;28;20212;-78
2023/12/29 04:38:07;;;;;;;0.63;0.63;;;9.20;99.90;;;;;;5047879;28;20316;-78
2023/12/29 04:40:37;;;;;;;0.97;0.80;;;9.20;99.90;;;;;;5048170;28;20295;-79
2023/12/29 04:43:04;;;;;;;0.70;0.70;;;9.10;99.90;;;;;;5047697;28;20240;-79
2023/12/29 04:45:31;;;;;;;1.27;0.97;;;9.10;99.90;;;;;;5047396;28;20214;-79
2023/12/29 04:48:00;;;;;;;1.47;0.80;;;9.10;99.90;;;;;;5047358;28;20298;-79
2023/12/29 04:50:26;;;;;;;2.27;0.80;;;9.00;99.90;;;;;;5047626;28;20299;-79
2023/12/29 04:52:53;;;;;;;1.50;0.57;;;9.00;99.90;;;;;;5047444;28;20290;-79
2023/12/29 04:55:23;;;;;;;1.00;1.00;;;9.00;99.90;;;;;;5030443;28;20240;-79
2023/12/29 04:57:51;;;;;;;0.97;0.80;;;9.10;99.90;;;;;;5027813;28;20260;-79
2023/12/29 05:00:18;;;;;;;0.93;0.77;;;9.10;99.90;;;;;;5027375;28;20304;-79
2023/12/29 05:02:45;;;;;;;1.90;0.87;;;9.10;99.90;;;;;;5027740;28;20619;-80
2023/12/29 05:05:12;;;;;;;0.77;0.43;;;9.10;99.90;;;;;;5027539;28;20233;-79
2023/12/29 05:07:39;;;;;;;0.80;0.80;;;9.10;99.90;;;;;;5027544;28;20618;-79
2023/12/29 05:10:07;;;;;;;0.60;0.60;;;9.10;99.90;;;;;;5027122;28;20286;-80
2023/12/29 05:12:35;;;;;;;1.50;0.60;;;9.10;99.90;;;;;;5041926;28;20220;-80
2023/12/29 05:15:04;;;;;;;0.80;0.80;;;9.10;99.90;;;;;;5047304;28;20616;-80
2023/12/29 05:17:31;;;;;;;0.43;0.43;;;9.10;99.90;;;;;;5047478;28;20239;-80
2023/12/29 05:19:58;;;;;;;0.73;0.73;;;9.10;99.90;;;;;;5047561;28;20311;-80
2023/12/29 05:22:25;;;;;;;0.70;0.50;;;9.10;99.90;;;;;;5047704;28;20254;-81
2023/12/29 05:24:52;;;;;;;1.13;0.50;;;9.10;99.90;;;;;;5034560;28;20213;-81
2023/12/29 05:27:19;;;;;;;1.13;0.50;;;9.10;99.90;;;;;;5027195;28;20220;-80
2023/12/29 05:29:46;;;;;;;0.87;0.57;;;9.10;99.90;;;;;;5030364;28;20274;-80
2023/12/29 05:32:14;;;;;;;1.57;0.70;;;9.10;99.90;;;;;;5047158;28;20730;-80
2023/12/29 05:34:41;;;;;;;0.67;0.67;;;9.20;99.90;;;;;;5047010;28;20295;-81
2023/12/29 05:37:08;;;;;;;0.50;0.50;;;9.20;99.90;;;;;;5047389;28;20579;-81
2023/12/29 05:39:35;;;;;;;0.63;0.57;;;9.20;99.90;;;;;;5047256;28;20789;-82
2023/12/29 05:42:02;;;;;;;1.07;0.50;;;9.20;99.90;;;;;;5047386;28;20208;-81
2023/12/29 05:44:29;;;;;;;0.60;0.60;;;9.20;99.90;;;;;;5047154;28;20208;-81
2023/12/29 05:46:56;;;;;;;0.57;0.40;;;9.20;99.90;;;;;;5047075;28;20212;-81
2023/12/29 05:49:27;;;;;;;0.63;0.43;;;9.20;99.90;;;;;;5047150;28;20258;-82
2023/12/29 05:51:54;;;;;;;0.47;0.47;;;9.30;99.90;;;;;;5047355;28;20733;-79
2023/12/29 05:54:21;;;;;;;0.73;0.57;;;9.30;99.90;;;;;;5047099;28;20216;-79
2023/12/29 05:56:47;;;;;;;0.50;0.50;;;9.30;99.90;;;;;;5046396;28;20257;-78
2023/12/29 05:59:14;;;;;;;0.60;0.60;;;9.30;99.90;;;;;;5046551;28;20236;-78
2023/12/29 06:01:41;;;;;;;2.33;0.70;;;9.30;99.90;;;;;;5049428;28;20204;-78
2023/12/29 06:04:10;;;;;;;1.07;0.40;;;9.30;99.90;;;;;;5050400;28;20717;-77
2023/12/29 06:06:38;;;;;;;0.50;0.50;;;9.30;99.90;;;;;;5050734;28;20262;-78
2023/12/29 06:09:05;;;;;;;0.77;0.60;;;9.30;99.90;;;;;;5048924;28;20741;-78
2023/12/29 06:11:33;;;;;;;0.73;0.60;;;9.30;99.90;;;;;;5050343;28;20258;-78
2023/12/29 06:14:00;;;;;;;0.50;0.50;;;9.20;99.90;;;;;;5050394;28;20212;-79
2023/12/29 06:16:27;;;;;;;0.70;0.70;;;9.30;99.90;;;;;;5050338;28;20583;-79
2023/12/29 06:18:54;;;;;;;0.50;0.50;;;9.40;99.90;;;;;;5050421;28;20236;-79
2023/12/29 06:21:21;;;;;;;1.13;0.50;;;9.30;99.90;;;;;;5050092;28;20254;-79
2023/12/29 06:23:49;;;;;;;1.20;0.60;;;9.30;99.90;;;;;;5046329;28;20217;-79
2023/12/29 06:26:17;;;;;;;1.80;0.70;;;9.40;99.90;;;;;;5030070;28;20204;-79
2023/12/29 06:28:45;;;;;;;0.50;0.50;;;9.50;99.90;;;;;;5030451;28;20672;-79
2023/12/29 06:31:12;;;;;;;1.43;0.57;;;9.50;99.90;;;;;;5044848;28;20208;-79
2023/12/29 06:33:41;;;;;;;1.53;0.87;;;9.50;99.90;;;;;;5049914;28;20228;-79
2023/12/29 06:36:09;;;;;;;0.70;0.70;;;9.50;99.90;;;;;;5049933;28;20208;-79
2023/12/29 06:38:36;;;;;;;0.97;0.67;;;9.50;99.90;;;;;;5049502;28;20236;-79
2023/12/29 06:41:05;;;;;;;0.67;0.60;;;9.60;99.90;;;;;;5049866;28;20274;-79
2023/12/29 06:43:32;;;;;;;1.77;0.70;;;9.60;99.90;;;;;;5049726;28;20666;-79
2023/12/29 06:45:59;;;;;;;0.87;0.70;;;9.60;99.90;;;;;;5049763;28;20350;-79
2023/12/29 06:48:26;;;;;;;0.70;0.70;;;9.60;99.90;;;;;;5049763;28;20212;-79
2023/12/29 06:50:53;;;;;;;1.10;0.80;;;9.50;99.90;;;;;;5049720;28;20551;-79
2023/12/29 06:53:20;;;;;;;1.17;0.70;;;9.60;99.90;;;;;;5049281;28;20679;-78
2023/12/29 06:55:45;;;;;;;0.63;0.63;;;9.50;99.90;;;;;;5029565;28;20685;-78
2023/12/29 06:58:14;;;;;;;0.90;0.70;;;9.60;99.90;;;;;;5029360;28;20250;-78
2023/12/29 07:00:41;;;;;;;0.80;0.50;;;9.60;99.90;;;;;;5029604;28;20208;-77
2023/12/29 07:03:08;;;;;;;1.23;0.63;;;9.60;99.90;;;;;;5029658;28;20208;-78
2023/12/29 07:05:35;;;;;;;1.17;0.90;;;9.60;99.90;;;;;;5044478;28;20299;-79
2023/12/29 07:08:02;;;;;;;0.70;0.70;;;9.50;99.90;;;;;;5049146;28;20670;-79
2023/12/29 07:10:29;;;;;;;1.07;0.70;;;9.60;99.90;;;;;;5049082;28;20323;-78
2023/12/29 07:12:56;;;;;;;1.17;0.80;;;9.60;99.90;;;;;;5049156;28;20298;-77
2023/12/29 07:15:24;;;;;;;0.60;0.60;;;9.60;99.90;;;;;;5048686;28;20208;-76
2023/12/29 07:17:51;;;;;;;0.67;0.67;;;9.60;99.90;;;;;;5049351;28;20623;-78
2023/12/29 07:20:18;;;;;;;0.60;0.60;;;9.60;99.90;;;;;;5049050;28;20273;-79
2023/12/29 07:22:45;;;;;;;0.67;0.67;;;9.60;99.90;;;;;;5049168;28;20200;-79
2023/12/29 07:25:12;;;;;;;1.20;0.80;;;9.50;99.90;;;;;;5033368;28;20217;-79
2023/12/29 07:27:39;;;;;;;0.80;0.80;;;9.50;99.90;;;;;;5029447;28;20217;-79
2023/12/29 07:30:08;;;;;;;1.00;0.87;;;9.50;99.90;;;;;;5042900;28;20208;-79
2023/12/29 07:32:36;;;;;;;1.63;0.73;;;9.50;99.90;;;;;;5048948;28;20246;-79
2023/12/29 07:35:04;;;;;;;1.07;0.97;;;9.50;99.90;;;;;;5048709;28;20245;-79
2023/12/29 07:37:31;;;;;;;1.00;0.80;;;9.60;99.90;;;;;;5048262;28;20243;-81
2023/12/29 07:39:58;;;;;;;0.70;0.70;;;9.60;99.90;;;;;;5047965;28;20862;-79
2023/12/29 07:42:24;;;;;;;1.10;0.83;;;9.60;99.90;;;;;;5048185;28;20609;-80
2023/12/29 07:44:52;;;;;;;1.70;0.87;;;9.60;99.90;;;;;;5048664;28;20258;-79
2023/12/29 07:47:19;;;;;;;3.73;1.10;;;9.50;99.90;;;;;;5048507;28;20208;-79
2023/12/29 07:49:47;;;;;;;0.90;0.70;;;9.50;99.90;;;;;;5048810;28;20630;-79
2023/12/29 07:52:14;;;;;;;1.40;0.70;;;9.60;99.90;;;;;;5048248;28;20690;-80
2023/12/29 07:54:41;;;;;;;1.03;0.60;;;9.60;99.90;;;;;;5036859;28;20604;-79
2023/12/29 07:57:08;;;;;;;1.00;0.90;;;9.60;99.90;;;;;;5028468;28;20205;-80
2023/12/29 07:59:36;;;;;;;1.27;0.93;;;9.70;99.90;;;;;;5028563;28;20279;-79
2023/12/29 08:02:02;;;;;;;1.53;1.00;;;9.70;99.90;;;;;;5031396;28;20240;-79
2023/12/29 08:04:29;;;;;;;1.23;0.90;;;9.80;99.90;;;;;;5028585;28;20288;-80
2023/12/29 08:06:58;;;;;;;1.70;0.93;;;9.80;99.90;;;;;;5028430;28;20746;-80
2023/12/29 08:09:24;;;;;;;1.40;0.97;;;9.80;99.90;;;;;;5027894;28;20294;-80
2023/12/29 08:11:51;;;;;;;1.43;0.80;;;9.90;99.90;;;;;;5028640;28;20211;-80
2023/12/29 08:14:18;;;;;;;0.80;0.80;;;9.90;99.90;;;;;;5029953;28;20211;-80
2023/12/29 08:16:48;;;;;;;0.70;0.70;;;9.90;99.90;;;;;;5045598;28;20208;-77
2023/12/29 08:19:16;;;;;;;1.37;0.73;;;10.00;99.90;;;;;;5042228;28;20684;-77
2023/12/29 08:21:42;;;;;;;0.90;0.70;;;10.10;99.90;;;;;;5037294;28;20201;-78
2023/12/29 08:24:11;;;;;;;1.47;0.93;;;10.00;99.90;;;;;;5038252;28;20299;-78
2023/12/29 08:26:45;;;;;;;1.43;0.87;;;10.10;99.90;;;;;;5040260;28;20200;-78
2023/12/29 08:29:12;;;;;;;2.17;0.93;;;10.10;99.90;;;;;;5039193;28;20223;-78
2023/12/29 08:31:38;;;;;;;0.97;0.80;;;10.10;99.90;;;;;;5032022;28;20201;-78
2023/12/29 08:34:05;;;;;;;1.10;1.00;;;10.10;99.90;;;;;;5027819;28;20296;-81
2023/12/29 08:36:32;;;;;;;1.00;0.90;;;10.20;99.90;;;;;;5027845;28;20299;-81
2023/12/29 08:38:59;;;;;;;1.33;0.80;;;10.20;99.90;;;;;;5027936;28;20235;-80
2023/12/29 08:41:27;;;;;;;0.70;0.63;;;10.30;99.90;;;;;;5027633;28;20300;-80
2023/12/29 08:43:54;;;;;;;2.87;0.87;;;10.40;99.90;;;;;;5027724;28;20236;-80
2023/12/29 08:46:22;;;;;;;1.23;0.67;;;10.30;99.90;;;;;;5027732;28;20240;-80
2023/12/29 08:48:49;;;;;;;3.07;0.93;;;10.30;99.90;;;;;;5027494;28;20652;-80
2023/12/29 08:51:16;;;;;;;1.20;0.80;;;10.30;99.90;;;;;;5027485;28;20262;-78
2023/12/29 08:53:43;;;;;;;1.37;0.70;;;10.20;99.90;;;;;;5030838;28;20645;-78
2023/12/29 08:56:10;;;;;;;1.17;0.50;;;10.20;99.90;;;;;;5046920;28;20842;-79
2023/12/29 08:58:38;;;;;;;0.87;0.70;;;10.30;99.90;;;;;;5026972;28;20784;-79
2023/12/29 09:01:05;;;;;;;2.40;0.73;;;10.30;99.90;;;;;;5027378;28;20291;-78
2023/12/29 09:03:32;;;;;;;1.27;0.67;;;10.30;99.90;;;;;;5027587;28;20247;-79
2023/12/29 09:05:59;;;;;;;1.20;0.87;;;10.30;99.90;;;;;;5027518;28;20207;-78
2023/12/29 09:08:26;;;;;;;0.87;0.60;;;10.40;99.90;;;;;;5027165;28;20208;-78
2023/12/29 09:10:53;;;;;;;1.00;0.90;;;10.30;99.90;;;;;;5027825;28;20202;-79
2023/12/29 09:13:22;;;;;;;1.90;0.80;;;10.30;99.90;;;;;;5026897;28;20263;-77
2023/12/29 09:15:50;;;;;;;2.93;0.70;;;10.40;99.90;;;;;;5027263;28;20306;-77
2023/12/29 09:18:17;;;;;;;1.03;0.73;;;10.40;99.90;;;;;;5027333;28;20320;-79
2023/12/29 09:20:44;;;;;;;2.00;1.00;;;10.40;99.90;;;;;;5027580;28;20303;-79
2023/12/29 09:23:11;;;;;;;1.97;0.83;;;10.50;99.90;;;;;;5026834;28;20208;-78
2023/12/29 09:25:38;;;;;;;1.90;1.00;;;10.50;99.90;;;;;;5045850;28;20291;-78
2023/12/29 09:28:05;;;;;;;1.57;1.10;;;10.50;99.90;;;;;;5047117;28;20311;-78
2023/12/29 09:30:32;;;;;;;1.23;0.50;;;10.50;99.90;;;;;;5046797;28;20200;-78
2023/12/29 09:33:00;;;;;;;1.23;0.90;;;10.50;99.90;;;;;;5047525;28;20200;-78
2023/12/29 09:35:27;;;;;;;1.57;0.80;;;10.60;99.90;;;;;;5047354;28;20218;-77
2023/12/29 09:37:54;;;;;;;0.77;0.70;;;10.60;99.90;;;;;;5050769;28;20212;-79
2023/12/29 09:40:21;;;;;;;1.47;0.90;;;10.60;99.90;;;;;;5050502;28;20354;-78
2023/12/29 09:42:49;;;;;;;3.27;0.70;;;10.60;99.90;;;;;;5050909;28;20208;-79
2023/12/29 09:45:24;;;;;;;1.70;1.10;;;10.60;99.90;;;;;;5050554;28;20200;-78
2023/12/29 09:47:53;;;;;;;1.03;0.97;;;10.50;99.90;;;;;;5050898;28;20234;-79
2023/12/29 09:50:23;;;;;;;2.13;0.97;;;10.50;99.90;;;;;;5036884;28;20696;-79
2023/12/29 09:52:50;;;;;;;1.03;0.80;;;10.50;99.90;;;;;;5031285;28;20303;-79
2023/12/29 09:55:18;;;;;;;1.17;0.87;;;10.50;99.90;;;;;;5045832;28;20215;-79
2023/12/29 09:57:47;;;;;;;1.97;1.07;;;10.50;99.90;;;;;;5046094;28;20626;-79
2023/12/29 10:00:17;;;;;;;2.00;1.00;;;10.50;99.90;;;;;;5045947;28;20847;-79
2023/12/29 10:02:45;;;;;;;1.00;0.90;;;10.60;99.90;;;;;;5046078;28;20208;-79
2023/12/29 10:05:11;;;;;;;2.50;1.00;;;10.60;99.90;;;;;;5045799;28;20291;-80
2023/12/29 10:07:41;;;;;;;1.77;1.00;;;10.60;99.90;;;;;;5045856;28;20208;-79
2023/12/29 10:10:08;;;;;;;2.00;1.00;;;10.60;99.90;;;;;;5045310;28;20244;-79
2023/12/29 10:12:38;;;;;;;1.27;1.17;;;10.70;99.90;;;;;;5046207;28;20239;-79
2023/12/29 10:15:13;;;;;;;1.87;0.90;;;10.70;99.90;;;;;;5045465;28;20287;-80
2023/12/29 10:17:50;;;;;;;1.00;0.67;;;10.70;99.90;;;;;;5045359;28;20726;-80
2023/12/29 10:20:30;;;;;;;3.13;1.37;;;10.80;99.90;;;;;;5045791;28;20246;-80
2023/12/29 10:23:09;;;;;;;1.13;0.80;;;10.80;99.90;;;;;;5045015;28;20208;-80
2023/12/29 10:25:36;;;;;;;0.87;0.70;;;10.80;99.90;;;;;;5045167;28;20627;-80
2023/12/29 10:28:04;;;;;;;1.50;0.80;;;10.90;99.90;;;;;;5044775;28;20212;-80
2023/12/29 10:30:34;;;;;;;1.03;0.80;;;10.90;99.90;;;;;;5045367;28;20208;-80
2023/12/29 10:33:02;;;;;;;1.20;0.73;;;10.90;99.90;;;;;;5045208;28;20192;-80
2023/12/29 10:35:31;;;;;;;2.83;0.93;;;11.00;99.90;;;;;;5045428;28;20230;-80
2023/12/29 10:38:10;;;;;;;1.57;1.03;;;11.00;99.90;;;;;;5044500;28;20302;-80
2023/12/29 10:40:37;;;;;;;2.57;1.00;;;11.00;99.90;;;;;;5045276;28;20223;-80
2023/12/29 10:43:06;;;;;;;3.03;0.77;;;11.00;99.90;;;;;;5046200;28;20223;-79
2023/12/29 10:45:33;;;;;;;4.20;1.20;;;11.00;99.90;;;;;;5048653;28;20216;-80
2023/12/29 10:48:01;;;;;;;1.27;0.77;;;11.00;99.90;;;;;;5047831;28;20298;-79
2023/12/29 10:50:28;;;;;;;2.93;0.90;;;11.10;99.90;;;;;;5047241;28;20671;-78
2023/12/29 10:53:13;;;;;;;1.73;0.87;;;11.10;99.90;;;;;;5047574;28;20298;-78
2023/12/29 10:55:40;;;;;;;1.00;0.90;;;11.10;99.90;;;;;;5048474;28;20222;-78
2023/12/29 10:58:07;;;;;;;2.23;1.03;;;11.10;99.90;;;;;;5048583;28;20648;-79
2023/12/29 11:00:34;;;;;;;1.10;1.00;;;11.10;99.90;;;;;;5048277;28;20234;-78
2023/12/29 11:03:01;;;;;;;1.70;0.80;;;11.10;99.90;;;;;;5048786;28;20302;-79
2023/12/29 11:05:28;;;;;;;1.77;1.20;;;11.20;99.90;;;;;;5049082;28;20216;-79
2023/12/29 11:07:55;;;;;;;1.43;0.93;;;11.10;99.90;;;;;;5049560;28;20230;-79
2023/12/29 11:10:24;;;;;;;2.07;0.97;;;11.10;99.90;;;;;;5048711;28;20743;-78
2023/12/29 11:12:51;;;;;;;2.40;1.10;;;11.20;99.90;;;;;;5049086;28;20679;-80
2023/12/29 11:15:19;;;;;;;2.63;1.23;;;11.20;99.90;;;;;;5049171;28;20239;-79
2023/12/29 11:17:49;;;;;;;1.90;1.13;;;11.20;99.90;;;;;;5043913;28;20635;-79
2023/12/29 11:20:17;;;;;;;1.93;0.87;;;11.20;99.90;;;;;;5029032;28;20286;-79
2023/12/29 11:22:46;;;;;;;3.43;1.83;;;11.20;99.90;;;;;;5029096;28;20205;-79
2023/12/29 11:25:14;;;;;;;4.37;1.13;;;11.20;99.90;;;;;;5028750;28;20715;-80
2023/12/29 11:27:43;;;;;;;1.30;0.73;;;11.20;99.90;;;;;;5029185;28;20228;-79
2023/12/29 11:30:15;;;;;;;1.87;0.93;;;11.20;99.90;;;;;;5034866;28;20228;-79
2023/12/29 11:32:48;;;;;;;2.43;0.97;;;11.20;99.90;;;;;;5048509;28;20202;-79
2023/12/29 11:35:20;;;;;;;2.57;0.87;;;11.20;99.90;;;;;;5048598;28;20196;-79
2023/12/29 11:38:28;;;;;;;1.60;0.73;;;11.20;99.90;;;;;;5048193;28;20228;-78
2023/12/29 11:41:03;;;;;;;1.77;0.73;;;11.20;99.90;;;;;;5044274;28;20236;-79
2023/12/29 11:43:31;;;;;;;2.10;0.83;;;11.20;99.90;;;;;;5048366;28;20931;-79
2023/12/29 11:45:58;;;;;;;1.90;0.70;;;11.20;99.90;;;;;;5048016;28;20301;-79
2023/12/29 11:48:56;;;;;;;1.50;1.00;;;11.20;99.90;;;;;;5047922;28;20706;-80
2023/12/29 11:51:28;;;;;;;2.47;1.00;;;11.20;99.90;;;;;;5048077;28;20299;-79
2023/12/29 11:53:55;;;;;;;2.40;1.07;;;11.20;99.90;;;;;;5048349;28;20358;-80
2023/12/29 11:56:22;;;;;;;1.37;0.67;;;11.20;99.90;;;;;;5048110;28;20295;-80
2023/12/29 11:58:50;;;;;;;2.00;1.00;;;11.20;99.90;;;;;;5047005;28;20208;-80
2023/12/29 12:01:35;;;;;;;2.97;0.90;;;11.20;99.90;;;;;;5048337;28;20232;-80
2023/12/29 12:04:02;;;;;;;1.37;0.90;;;11.30;99.90;;;;;;5048156;28;20247;-81
2023/12/29 12:06:39;;;;;;;2.43;0.80;;;11.20;99.90;;;;;;5048201;28;20270;-81
2023/12/29 12:09:22;;;;;;;1.43;1.00;;;11.30;99.90;;;;;;5047821;28;20242;-81
2023/12/29 12:11:50;;;;;;;1.07;0.97;;;11.20;99.90;;;;;;5043798;28;20649;-81
2023/12/29 12:14:59;;;;;;;1.20;0.87;;;11.20;99.90;;;;;;5041313;28;20287;-81
2023/12/29 12:17:33;;;;;;;1.73;1.03;;;11.20;99.90;;;;;;5008610;28;20576;-81
2023/12/29 12:20:03;;;;;;;3.07;0.93;;;11.20;99.90;;;;;;5041056;28;20297;-81
2023/12/29 12:22:31;;;;;;;3.60;1.00;;;11.10;99.90;;;;;;5042050;28;20233;-82
2023/12/29 12:24:59;;;;;;;1.87;1.07;;;11.10;99.90;;;;;;5047899;28;20211;-80
2023/12/29 12:27:26;;;;;;;0.80;0.80;;;11.10;99.90;;;;;;5047732;28;20204;-80
2023/12/29 12:29:57;;;;;;;2.90;0.90;;;11.00;99.90;;;;;;5047684;28;20240;-81
2023/12/29 12:32:24;;;;;;;2.30;0.80;;;10.90;99.90;;;;;;5048079;28;20196;-80
2023/12/29 12:34:52;;;;;;;0.77;0.60;;;10.90;99.90;;;;;;5047718;28;20696;-80
2023/12/29 12:37:20;;;;;;;2.70;0.90;;;10.90;99.90;;;;;;5047370;28;20295;-81
2023/12/29 12:39:47;;;;;;;1.90;0.80;;;10.80;99.90;;;;;;5046777;28;20238;-81
2023/12/29 12:42:15;;;;;;;2.17;1.00;;;10.70;99.90;;;;;;5034490;28;20706;-81
2023/12/29 12:44:47;;;;;;;1.10;0.80;;;10.70;99.90;;;;;;5027642;28;20291;-81
2023/12/29 12:47:18;;;;;;;2.20;0.67;;;10.70;99.90;;;;;;5027457;28;20295;-81
2023/12/29 12:49:48;;;;;;;2.13;0.80;;;10.70;99.90;;;;;;5027796;28;20207;-79
2023/12/29 12:52:16;;;;;;;1.10;0.80;;;10.70;99.90;;;;;;5027607;28;20444;-81
2023/12/29 12:54:43;;;;;;;1.23;1.00;;;10.70;99.90;;;;;;5038764;28;20242;-81
2023/12/29 12:57:11;;;;;;;1.13;0.63;;;10.70;99.90;;;;;;5047174;28;20320;-80
2023/12/29 12:59:38;;;;;;;2.47;0.93;;;10.70;99.90;;;;;;5039936;28;20723;-80